EGNV/MME METAR and TAF weather

Enter ICAO airport designator
Station Type Date Time Source
EGNV METAR 2019/04/19 20:50 UTC NOAA

EGNV 192050Z 03003KT CAVOK 08/05 Q1032


Station Type Date Time Source
EGNV Decoded METAR 2019/04/19 20:50 UTC NOAA

Tees-Side, United Kingdom (EGNV) 54-31N 001-25W
Apr 19, 2019 - 04:50 PM EDT / 2019.04.19 2050 UTC
Wind: from the NNE (030 degrees) at 3 MPH (3 KT):0
Visibility: greater than 7 mile(s):0
Temperature: 46 F (8 C)
Dew Point: 41 F (5 C)
Relative Humidity: 81%
Pressure (altimeter): 30.47 in. Hg (1032 hPa)
ob: EGNV 192050Z 03003KT CAVOK 08/05 Q1032
cycle: 21

Station Type Date Time Source
EGNV TAF 2016/01/23 12:00 UTC NOAA

TAF EGNV 231059Z 2312/2321 18008KT 9999 FEW030 PROB40 2319/2321 6000 RADZ BKN014

Example: see airport list